createdAt,value
2018-08-20T00:01:32.882Z,23.65
2018-08-20T00:06:27.858Z,23.61
2018-08-20T00:11:22.483Z,23.58
2018-08-20T00:16:17.180Z,23.70
2018-08-20T00:21:11.868Z,23.67
2018-08-20T00:26:10.577Z,23.66
2018-08-20T00:31:05.279Z,23.59
2018-08-20T00:35:59.903Z,23.52
2018-08-20T00:40:54.637Z,23.55
2018-08-20T00:45:49.200Z,23.43
2018-08-20T00:50:43.837Z,23.08
2018-08-20T00:55:38.389Z,22.85
2018-08-20T01:00:32.994Z,23.02
2018-08-20T01:05:27.649Z,23.04
2018-08-20T01:10:22.324Z,22.97
2018-08-20T01:15:16.959Z,22.76
2018-08-20T01:20:11.577Z,22.87
2018-08-20T01:25:06.291Z,22.92
2018-08-20T01:30:00.854Z,22.79
2018-08-20T01:34:58.931Z,22.65
2018-08-20T01:39:53.544Z,22.56
2018-08-20T01:44:48.629Z,22.37
2018-08-20T01:49:43.204Z,22.34
2018-08-20T01:54:38.102Z,22.18
2018-08-20T01:59:32.682Z,22.08
2018-08-20T02:04:27.456Z,22.01
2018-08-20T02:09:22.141Z,21.83
2018-08-20T02:14:16.758Z,21.76
2018-08-20T02:19:11.374Z,22.07
2018-08-20T02:24:09.007Z,22.03
2018-08-20T02:29:03.727Z,21.98
2018-08-20T02:33:58.337Z,21.95
2018-08-20T02:38:52.943Z,21.92
2018-08-20T02:43:47.578Z,21.78
2018-08-20T02:48:42.168Z,21.58
2018-08-20T02:53:36.796Z,21.63
2018-08-20T02:58:31.462Z,21.42
2018-08-20T03:03:26.147Z,21.43
2018-08-20T03:08:20.817Z,21.17
2018-08-20T03:13:15.377Z,21.07
2018-08-20T03:23:16.040Z,21.15
2018-08-20T03:28:10.636Z,21.05
2018-08-20T03:33:05.291Z,21.18
2018-08-20T03:37:59.896Z,21.15
2018-08-20T03:42:54.492Z,20.87
2018-08-20T03:47:49.470Z,20.94
2018-08-20T03:52:44.118Z,20.99
2018-08-20T03:57:39.147Z,20.96
2018-08-20T04:02:33.817Z,20.90
2018-08-20T04:07:28.507Z,20.89
2018-08-20T04:12:23.067Z,20.72
2018-08-20T04:17:17.702Z,20.78
2018-08-20T04:22:12.294Z,20.85
2018-08-20T04:27:06.898Z,20.87
2018-08-20T04:32:01.642Z,21.00
2018-08-20T04:36:56.219Z,20.97
2018-08-20T04:41:50.872Z,20.93
2018-08-20T04:46:45.475Z,20.90
2018-08-20T04:51:40.040Z,20.86
2018-08-20T04:56:34.620Z,20.83
2018-08-20T05:01:29.214Z,20.89
2018-08-20T05:06:23.848Z,20.94
2018-08-20T05:11:18.567Z,20.93
2018-08-20T05:16:13.191Z,20.89
2018-08-20T05:21:07.905Z,20.99
2018-08-20T05:26:02.513Z,20.92
2018-08-20T05:30:57.109Z,21.02
2018-08-20T05:35:51.742Z,20.93
2018-08-20T05:40:46.379Z,21.08
2018-08-20T05:45:40.971Z,21.26
2018-08-20T05:50:35.604Z,21.34
2018-08-20T05:55:30.274Z,21.31
2018-08-20T06:00:24.915Z,21.50
2018-08-20T06:05:19.614Z,21.70
2018-08-20T06:10:14.299Z,21.88
2018-08-20T06:15:12.740Z,21.95
2018-08-20T06:20:11.206Z,22.03
2018-08-20T06:25:07.436Z,22.19
2018-08-20T06:30:02.410Z,22.25
2018-08-20T06:34:57.031Z,22.39
2018-08-20T06:39:51.638Z,22.60
2018-08-20T06:44:46.262Z,22.66
2018-08-20T06:49:41.163Z,22.64
2018-08-20T06:54:35.774Z,22.75
2018-08-20T06:59:30.439Z,23.10
2018-08-20T07:04:25.376Z,23.33
2018-08-20T07:09:19.944Z,23.70
2018-08-20T07:14:14.518Z,23.83
2018-08-20T07:19:09.216Z,24.13
2018-08-20T07:24:03.853Z,24.62
2018-08-20T07:28:58.496Z,24.98
2018-08-20T07:33:53.850Z,25.46
2018-08-20T07:38:48.465Z,25.85
2018-08-20T07:43:43.271Z,26.21
2018-08-20T07:48:37.820Z,26.59
2018-08-20T07:53:32.673Z,26.84
2018-08-20T07:58:27.355Z,27.48
2018-08-20T08:03:29.382Z,27.60
2018-08-20T08:08:24.107Z,27.54
2018-08-20T08:13:18.844Z,26.95
2018-08-20T08:18:13.645Z,27.14
2018-08-20T08:23:08.494Z,27.05
2018-08-20T08:28:03.466Z,27.55
2018-08-20T08:32:58.369Z,27.51
2018-08-20T08:37:53.117Z,27.96
2018-08-20T08:42:47.936Z,28.17
2018-08-20T08:47:43.054Z,28.23
2018-08-20T08:52:37.829Z,27.99
2018-08-20T08:57:32.496Z,28.13
2018-08-20T09:02:27.187Z,28.27
2018-08-20T09:07:21.939Z,28.70
2018-08-20T09:12:16.725Z,28.84
2018-08-20T09:17:11.423Z,28.78
2018-08-20T09:22:06.589Z,29.17
2018-08-20T09:27:01.191Z,29.05
2018-08-20T09:31:55.888Z,28.96
2018-08-20T09:36:50.518Z,29.10
2018-08-20T09:41:45.124Z,29.15
2018-08-20T09:46:39.768Z,29.41
2018-08-20T09:51:34.434Z,29.23
2018-08-20T09:56:29.631Z,29.65
2018-08-20T10:01:24.327Z,29.95
2018-08-20T10:06:18.992Z,30.13
2018-08-20T10:11:14.075Z,29.83
2018-08-20T10:16:09.069Z,30.06
2018-08-20T10:21:03.795Z,29.96
2018-08-20T10:25:58.583Z,29.69
2018-08-20T10:30:53.348Z,29.68
2018-08-20T10:35:47.922Z,29.97
2018-08-20T10:40:42.599Z,29.95
2018-08-20T10:45:42.335Z,29.86
2018-08-20T10:50:36.958Z,29.77
2018-08-20T10:55:32.184Z,30.06
2018-08-20T11:00:26.799Z,30.42
2018-08-20T11:05:21.523Z,30.78
2018-08-20T11:10:16.091Z,30.04
2018-08-20T11:15:11.938Z,30.42
2018-08-20T11:20:09.952Z,30.41
2018-08-20T11:25:05.120Z,30.53
2018-08-20T11:29:59.759Z,30.52
2018-08-20T11:34:54.388Z,30.75
2018-08-20T11:39:48.984Z,30.86
2018-08-20T11:44:43.550Z,31.07
2018-08-20T11:49:38.174Z,31.03
2018-08-20T11:54:32.758Z,30.98
2018-08-20T11:59:27.429Z,30.91
2018-08-20T12:04:23.639Z,30.93
2018-08-20T12:09:18.296Z,30.73
2018-08-20T12:14:12.849Z,30.77
2018-08-20T12:19:11.724Z,30.98
2018-08-20T12:24:06.296Z,30.78
2018-08-20T12:29:00.889Z,30.51
2018-08-20T12:33:55.527Z,30.54
2018-08-20T12:38:50.304Z,30.49
2018-08-20T12:43:44.913Z,30.60
2018-08-20T12:48:39.558Z,30.63
2018-08-20T12:53:34.155Z,30.72
2018-08-20T12:58:28.795Z,30.71
2018-08-20T13:03:23.475Z,30.60
2018-08-20T13:08:20.692Z,30.59
2018-08-20T13:13:15.367Z,30.52
2018-08-20T13:18:10.047Z,30.45
2018-08-20T13:23:04.740Z,30.37
2018-08-20T13:27:59.366Z,30.39
2018-08-20T13:32:53.916Z,30.46
2018-08-20T13:37:48.635Z,30.46
2018-08-20T13:42:43.239Z,30.51
2018-08-20T13:47:37.936Z,30.48
2018-08-20T13:52:33.980Z,30.35
2018-08-20T13:57:31.874Z,30.31
2018-08-20T14:02:26.558Z,30.34
2018-08-20T14:07:21.441Z,30.32
2018-08-20T14:12:16.062Z,30.21
2018-08-20T14:17:10.767Z,30.24
2018-08-20T14:22:05.564Z,30.28
2018-08-20T14:27:01.144Z,30.34
2018-08-20T14:31:55.743Z,30.34
2018-08-20T14:36:50.474Z,30.40
2018-08-20T14:41:45.084Z,30.39
2018-08-20T14:46:40.534Z,30.33
2018-08-20T14:51:35.169Z,30.48
2018-08-20T14:56:29.863Z,30.38
2018-08-20T15:01:24.523Z,30.37
2018-08-20T15:06:19.300Z,30.30
2018-08-20T15:11:13.959Z,30.32
2018-08-20T15:16:08.696Z,30.35
2018-08-20T15:21:03.255Z,30.36
2018-08-20T15:25:57.809Z,30.26
2018-08-20T15:30:52.543Z,30.31
2018-08-20T15:35:47.472Z,30.16
2018-08-20T15:40:42.101Z,30.34
2018-08-20T15:45:36.717Z,30.22
2018-08-20T15:50:31.380Z,30.22
2018-08-20T15:55:25.983Z,30.17
2018-08-20T16:00:20.662Z,30.16
2018-08-20T16:05:15.333Z,30.16
2018-08-20T16:10:11.865Z,30.06
2018-08-20T16:15:07.587Z,29.90
2018-08-20T16:20:02.773Z,29.92
2018-08-20T16:24:57.422Z,29.86
2018-08-20T16:29:52.123Z,29.75
2018-08-20T16:34:47.803Z,29.68
2018-08-20T16:39:42.442Z,29.65
2018-08-20T16:44:37.036Z,29.57
2018-08-20T16:49:31.724Z,29.45
2018-08-20T16:54:26.360Z,29.35
2018-08-20T16:59:21.073Z,29.17
2018-08-20T17:04:30.944Z,29.06
2018-08-20T17:09:25.627Z,28.86
2018-08-20T17:14:20.259Z,28.70
2018-08-20T17:19:14.872Z,28.56
2018-08-20T17:24:09.588Z,28.45
2018-08-20T17:29:08.308Z,28.39
2018-08-20T17:34:05.097Z,28.29
2018-08-20T17:39:00.832Z,28.10
2018-08-20T17:43:55.543Z,28.02
2018-08-20T17:48:50.212Z,27.89
2018-08-20T17:53:53.257Z,27.74
2018-08-20T17:58:52.167Z,27.59
2018-08-20T18:03:46.799Z,27.37
2018-08-20T18:08:41.439Z,27.15
2018-08-20T18:13:52.087Z,27.04
2018-08-20T18:18:48.935Z,26.93
2018-08-20T18:23:44.335Z,26.78
2018-08-20T18:28:45.692Z,26.57
2018-08-20T18:33:43.301Z,26.49
2018-08-20T18:38:42.448Z,26.35
2018-08-20T18:43:37.244Z,26.36
2018-08-20T18:48:36.047Z,26.46
2018-08-20T18:53:33.977Z,26.26
2018-08-20T18:58:32.589Z,26.11
2018-08-20T19:03:31.517Z,26.05
2018-08-20T19:08:26.532Z,26.05
2018-08-20T19:13:21.171Z,25.93
2018-08-20T19:18:29.472Z,25.83
2018-08-20T19:23:24.188Z,25.94
2018-08-20T19:28:21.684Z,25.90
2018-08-20T19:33:21.430Z,25.72
2018-08-20T19:38:16.178Z,25.66
2018-08-20T19:43:10.922Z,26.09
2018-08-20T19:48:05.740Z,26.30
2018-08-20T19:53:00.704Z,26.37
2018-08-20T19:57:55.410Z,26.34
2018-08-20T20:02:50.003Z,26.27
2018-08-20T20:07:56.984Z,26.31
2018-08-20T20:12:54.907Z,26.23
2018-08-20T20:17:49.748Z,26.21
2018-08-20T20:22:44.577Z,26.07
2018-08-20T20:27:40.321Z,26.02
2018-08-20T20:32:35.032Z,25.97
2018-08-20T20:37:29.688Z,25.90
2018-08-20T20:42:24.469Z,25.75
2018-08-20T20:47:19.426Z,25.60
2018-08-20T20:52:14.104Z,25.35
2018-08-20T20:57:09.093Z,25.17
2018-08-20T21:02:03.832Z,25.08
2018-08-20T21:06:58.537Z,25.01
2018-08-20T21:11:53.305Z,24.87
2018-08-20T21:16:47.937Z,25.08
2018-08-20T21:21:42.695Z,24.80
2018-08-20T21:26:38.330Z,24.71
2018-08-20T21:32:06.713Z,24.69
2018-08-20T21:37:01.322Z,24.59
2018-08-20T21:41:55.997Z,24.61
2018-08-20T21:46:50.776Z,24.46
2018-08-20T21:51:50.575Z,24.33
2018-08-20T21:56:52.620Z,24.30
2018-08-20T22:01:47.330Z,24.26
2018-08-20T22:06:41.952Z,24.33
2018-08-20T22:11:36.641Z,24.39
2018-08-20T22:16:31.379Z,24.11
2018-08-20T22:21:26.403Z,24.12
2018-08-20T22:26:22.080Z,23.92
2018-08-20T22:33:58.622Z,23.78
2018-08-20T22:38:55.906Z,23.78
2018-08-20T22:43:51.527Z,23.73
2018-08-20T22:48:46.548Z,23.52
2018-08-20T22:53:47.046Z,23.26
2018-08-20T22:58:43.488Z,23.27
2018-08-20T23:03:38.209Z,23.19
2018-08-20T23:08:34.012Z,23.27
2018-08-20T23:13:29.210Z,23.27
2018-08-20T23:18:23.970Z,23.19
2018-08-20T23:23:39.178Z,23.16
2018-08-20T23:28:34.361Z,23.06
2018-08-20T23:33:29.434Z,22.97
2018-08-20T23:38:24.030Z,22.80
